Time;durP1;ratioP1;P1;durP2;ratioP2;P2;SDS_P1;SDS_P2;PMS_P1;PMS_P2;Temp;Humidity;BMP_temperature;BMP_pressure;BME280_temperature;BME280_humidity;BME280_pressure;Samples;Min_cycle;Max_cycle;Signal;HPM_P1;HPM_P2
2022/10/03 00:02:03;;;;;;;16.02;2.35;;;;;;;9.47;81.62;101174.75;10220610;29;20071;-78
2022/10/03 00:07:18;;;;;;;17.33;2.88;;;;;;;9.49;81.75;101179.06;10225526;29;20126;-78
2022/10/03 00:12:41;;;;;;;10.40;2.92;;;;;;;9.49;81.49;101180.88;10244365;28;20047;-78
2022/10/03 00:17:56;;;;;;;13.18;2.80;;;;;;;9.46;81.27;101176.56;10235434;28;20047;-78
2022/10/03 00:23:06;;;;;;;10.32;2.72;;;;;;;9.38;81.26;101184.25;10221914;29;20049;-77
2022/10/03 00:28:23;;;;;;;17.00;3.15;;;;;;;9.31;81.40;101184.72;10215078;29;20052;-77
2022/10/03 00:33:39;;;;;;;16.10;3.83;;;;;;;9.39;81.05;101182.41;10237230;29;20058;-79
2022/10/03 00:39:13;;;;;;;13.00;2.78;;;;;;;9.45;80.53;101192.75;10223143;28;20130;-78
2022/10/03 00:44:46;;;;;;;16.80;3.40;;;;;;;9.44;80.46;101193.72;10228521;29;20039;-78
2022/10/03 00:50:17;;;;;;;18.35;3.35;;;;;;;9.45;80.21;101200.78;10214815;29;20047;-77
2022/10/03 00:55:30;;;;;;;20.80;3.45;;;;;;;9.40;80.29;101193.03;10214895;29;20122;-78
2022/10/03 01:00:34;;;;;;;14.25;3.00;;;;;;;9.43;80.21;101202.69;10234329;29;20134;-78
2022/10/03 01:05:54;;;;;;;18.42;2.80;;;;;;;9.35;80.27;101221.97;10220138;28;20476;-78
2022/10/03 01:11:08;;;;;;;18.30;3.80;;;;;;;9.24;80.34;101221.75;10242904;29;20115;-78
2022/10/03 01:16:19;;;;;;;17.15;3.38;;;;;;;9.17;80.49;101223.13;10224957;28;20467;-78
2022/10/03 01:21:36;;;;;;;16.55;3.47;;;;;;;9.14;80.55;101228.66;10213592;29;20047;-78
2022/10/03 01:26:54;;;;;;;18.58;3.53;;;;;;;9.10;81.07;101235.16;10229433;29;20129;-78
2022/10/03 01:32:03;;;;;;;18.42;3.33;;;;;;;9.08;81.32;101239.75;10215370;29;20054;-78
2022/10/03 01:37:10;;;;;;;20.25;3.90;;;;;;;9.05;81.69;101240.78;10213259;29;20139;-77
2022/10/03 01:42:19;;;;;;;16.05;3.83;;;;;;;8.98;82.07;101255.53;10213062;29;20044;-78
2022/10/03 01:47:33;;;;;;;13.68;3.72;;;;;;;8.91;82.57;101259.53;10212453;29;20039;-77
2022/10/03 01:52:41;;;;;;;18.45;4.60;;;;;;;8.64;83.32;101260.25;10212650;29;20413;-77
2022/10/03 01:57:49;;;;;;;21.75;4.55;;;;;;;8.74;83.12;101261.41;10211883;29;20123;-78
2022/10/03 02:03:05;;;;;;;17.65;4.20;;;;;;;8.76;83.22;101267.53;10216649;29;20047;-78
2022/10/03 02:08:21;;;;;;;15.75;4.05;;;;;;;8.73;83.60;101275.75;10246089;28;20047;-77
2022/10/03 02:13:31;;;;;;;25.85;4.82;;;;;;;8.71;83.45;101280.34;10250051;28;20126;-78
2022/10/03 02:18:45;;;;;;;17.67;5.25;;;;;;;8.76;83.29;101278.25;10211115;29;20052;-78
2022/10/03 02:23:49;;;;;;;14.40;4.45;;;;;;;8.73;83.29;101297.19;10211538;29;20126;-78
2022/10/03 02:29:17;;;;;;;20.88;5.57;;;;;;;8.68;83.59;101295.75;10216161;29;20424;-78
2022/10/03 02:34:42;;;;;;;18.98;5.38;;;;;;;8.60;83.46;101297.03;10225526;28;20173;-78
2022/10/03 02:40:35;;;;;;;21.17;5.70;;;;;;;8.60;84.11;101290.81;10237248;29;20446;-78
2022/10/03 02:45:56;;;;;;;;;;;;;;;8.40;84.94;101291.94;10131101;28;20059;-78
2022/10/03 02:51:43;;;;;;;27.10;6.07;;;;;;;8.68;84.03;101301.94;10208582;29;20108;-77
2022/10/03 02:57:30;;;;;;;18.75;6.10;;;;;;;8.72;83.72;101305.31;10208081;29;20048;-78
2022/10/03 03:03:24;;;;;;;25.50;7.25;;;;;;;8.66;83.93;101303.84;10241140;29;20126;-78
2022/10/03 03:09:02;;;;;;;18.63;5.70;;;;;;;8.59;83.85;101303.34;10227838;29;20043;-78
2022/10/03 03:14:45;;;;;;;21.13;6.30;;;;;;;8.55;83.70;101306.28;10225981;29;20070;-77
2022/10/03 03:20:02;;;;;;;17.83;6.00;;;;;;;8.43;84.29;101313.19;10214587;29;20055;-78
2022/10/03 03:25:22;;;;;;;18.05;5.97;;;;;;;8.37;84.70;101317.09;10217856;28;20044;-77
2022/10/03 03:30:32;;;;;;;17.00;5.93;;;;;;;8.38;84.31;101315.25;10236423;29;20044;-77
2022/10/03 03:35:53;;;;;;;18.60;6.38;;;;;;;8.37;84.34;101316.22;10226776;29;20122;-78
2022/10/03 03:41:12;;;;;;;22.63;6.68;;;;;;;8.40;84.24;101321.41;10250279;29;20066;-78
2022/10/03 03:46:33;;;;;;;23.17;6.18;;;;;;;8.39;84.18;101325.00;10255122;28;20073;-77
2022/10/03 03:51:42;;;;;;;19.55;6.35;;;;;;;8.34;84.20;101343.19;10243689;29;20077;-77
2022/10/03 03:57:04;;;;;;;17.45;6.47;;;;;;;8.25;84.56;101332.97;10216474;29;20130;-78
2022/10/03 04:02:25;;;;;;;20.05;6.72;;;;;;;8.19;84.62;101339.53;10215448;29;20147;-77
2022/10/03 04:07:47;;;;;;;24.63;7.28;;;;;;;8.16;84.58;101335.22;10216253;29;20042;-78
2022/10/03 04:13:17;;;;;;;17.60;7.70;;;;;;;8.11;84.73;101342.63;10237473;29;20098;-77
2022/10/03 04:24:07;;;;;;;20.88;8.60;;;;;;;8.10;84.62;101340.91;10253576;29;20471;-77
2022/10/03 04:29:42;;;;;;;20.65;7.70;;;;;;;8.15;84.60;101346.03;10255091;28;20118;-77
2022/10/03 04:34:57;;;;;;;27.45;9.10;;;;;;;8.18;84.52;101352.06;10215685;29;20155;-78
2022/10/03 04:40:17;;;;;;;23.83;8.70;;;;;;;8.12;84.63;101357.75;10214984;29;20127;-78
2022/10/03 04:45:41;;;;;;;21.48;8.18;;;;;;;7.81;85.58;101353.19;10215315;29;20544;-78
2022/10/03 04:50:56;;;;;;;19.95;7.82;;;;;;;7.91;85.10;101354.44;10213509;29;20048;-78
2022/10/03 04:56:13;;;;;;;21.00;8.38;;;;;;;7.85;85.76;101356.59;10214830;29;20070;-77
2022/10/03 05:01:25;;;;;;;18.85;8.48;;;;;;;7.75;86.54;101360.72;10212320;29;20099;-78
2022/10/03 05:06:37;;;;;;;18.65;8.65;;;;;;;7.89;86.07;101360.81;10222026;29;20413;-77
2022/10/03 05:11:55;;;;;;;20.75;10.00;;;;;;;7.88;86.62;101364.44;10223539;29;20059;-77
2022/10/03 05:17:07;;;;;;;16.83;8.38;;;;;;;7.79;86.41;101360.47;10238025;28;20434;-76
2022/10/03 05:22:22;;;;;;;17.75;7.63;;;;;;;7.82;86.55;101362.97;10223585;29;20122;-76
2022/10/03 05:27:35;;;;;;;21.30;8.00;;;;;;;7.99;86.56;101378.09;10225153;28;20114;-77
2022/10/03 05:32:45;;;;;;;14.13;7.28;;;;;;;8.11;86.65;101387.28;10318721;23;20137;-81
2022/10/03 05:38:12;;;;;;;19.73;7.70;;;;;;;8.12;87.20;101397.91;10312659;28;20546;-81
2022/10/03 05:43:28;;;;;;;18.63;7.93;;;;;;;8.18;86.51;101397.56;10246614;28;20129;-80
2022/10/03 05:48:44;;;;;;;18.23;8.60;;;;;;;8.29;86.22;101390.75;10297764;28;20121;-81
2022/10/03 05:54:32;;;;;;;18.40;7.95;;;;;;;8.08;87.35;101398.16;10312451;28;20492;-80
2022/10/03 06:00:07;;;;;;;16.25;7.05;;;;;;;8.08;87.39;101404.34;10311312;28;20594;-80
2022/10/03 06:05:29;;;;;;;15.05;6.57;;;;;;;8.37;86.71;101404.59;10289393;28;20125;-81
2022/10/03 06:10:55;;;;;;;14.90;6.43;;;;;;;8.28;86.75;101413.09;10296053;28;20042;-80
2022/10/03 06:16:05;;;;;;;12.18;6.38;;;;;;;8.49;85.89;101425.34;10295819;28;20082;-81
2022/10/03 06:21:42;;;;;;;14.55;7.38;;;;;;;8.82;85.20;101425.25;10294295;28;20074;-81
2022/10/03 06:27:15;;;;;;;18.38;7.80;;;;;;;8.87;84.59;101418.78;10297559;28;20051;-81
2022/10/03 06:32:50;;;;;;;13.25;6.75;;;;;;;8.66;85.20;101429.75;10290036;28;20094;-81
2022/10/03 06:38:33;;;;;;;17.42;6.82;;;;;;;8.65;85.88;101416.47;10297062;28;20066;-81
2022/10/03 06:44:06;;;;;;;13.48;6.43;;;;;;;9.01;84.88;101425.06;10295730;28;20077;-81
2022/10/03 06:49:52;;;;;;;13.75;6.82;;;;;;;9.16;84.39;101428.69;10296626;28;20047;-80
2022/10/03 06:55:34;;;;;;;10.73;6.43;;;;;;;9.48;84.20;101441.97;10276234;28;20142;-78
2022/10/03 07:00:53;;;;;;;9.40;5.13;;;;;;;9.80;83.24;101436.50;10289071;28;20114;-80
2022/10/03 07:06:11;;;;;;;15.05;5.60;;;;;;;9.83;81.84;101433.63;10289161;28;20089;-81
2022/10/03 07:11:33;;;;;;;14.23;6.25;;;;;;;9.67;82.91;101431.88;10301821;28;20047;-79
2022/10/03 07:17:00;;;;;;;13.70;6.25;;;;;;;10.04;82.47;101444.88;10325069;28;20507;-82
2022/10/03 07:22:40;;;;;;;13.25;6.72;;;;;;;10.25;81.08;101448.91;10302045;28;20074;-79
2022/10/03 07:28:16;;;;;;;11.23;5.78;;;;;;;9.88;82.10;101453.03;10295581;28;20039;-78
2022/10/03 07:33:52;;;;;;;13.10;5.13;;;;;;;10.34;81.23;101442.97;10296766;28;20043;-79
2022/10/03 07:39:51;;;;;;;11.05;4.55;;;;;;;10.61;80.11;101467.22;10271597;28;20141;-78
2022/10/03 07:45:23;;;;;;;12.63;4.68;;;;;;;10.93;79.20;101472.31;10283480;28;20149;-80
2022/10/03 07:50:49;;;;;;;10.43;4.75;;;;;;;10.87;79.10;101480.78;10295062;28;20055;-80
2022/10/03 07:56:13;;;;;;;10.18;4.22;;;;;;;10.86;79.66;101491.63;10295745;28;20046;-79
2022/10/03 08:01:43;;;;;;;13.43;4.60;;;;;;;11.19;78.68;101483.22;10314225;28;20134;-79
2022/10/03 08:06:57;;;;;;;8.05;3.58;;;;;;;11.48;77.74;101484.81;10282281;28;20042;-78
2022/10/03 08:12:39;;;;;;;8.73;3.85;;;;;;;11.13;78.12;101499.75;10300073;28;20129;-79
2022/10/03 08:18:17;;;;;;;10.17;3.33;;;;;;;11.88;76.06;101503.63;10287916;28;20117;-79
2022/10/03 08:23:44;;;;;;;11.68;3.83;;;;;;;11.93;75.99;101503.34;10272837;28;20058;-80
2022/10/03 08:29:13;;;;;;;7.68;2.78;;;;;;;11.54;76.75;101499.69;10296743;28;20476;-79
2022/10/03 08:35:00;;;;;;;9.90;3.20;;;;;;;12.40;74.46;101507.25;10301043;28;20161;-78
2022/10/03 08:40:43;;;;;;;9.15;2.55;;;;;;;11.97;74.89;101510.22;10223081;28;20114;-78
2022/10/03 08:45:59;;;;;;;11.73;3.50;;;;;;;12.56;73.80;101513.28;10301913;28;20081;-78
2022/10/03 08:51:39;;;;;;;7.25;2.65;;;;;;;12.64;72.67;101520.78;10292811;28;20042;-78
2022/10/03 08:57:01;;;;;;;9.82;2.80;;;;;;;12.60;73.59;101513.91;10295544;28;20046;-79
2022/10/03 09:02:46;;;;;;;7.38;2.53;;;;;;;12.93;72.82;101517.81;10293503;28;20045;-80
2022/10/03 09:08:47;;;;;;;4.43;2.10;;;;;;;13.79;69.64;101506.00;10298223;28;20043;-80
2022/10/03 09:14:33;;;;;;;8.15;3.53;;;;;;;14.02;68.81;101509.66;10287334;28;20062;-81
2022/10/03 09:20:08;;;;;;;11.35;2.72;;;;;;;14.59;65.73;101515.00;10319950;28;20049;-81
2022/10/03 09:25:33;;;;;;;7.85;2.75;;;;;;;15.32;62.53;101512.66;10317875;28;20055;-81
2022/10/03 09:30:52;;;;;;;5.47;1.92;;;;;;;14.22;65.69;101521.59;10305885;28;20130;-81
2022/10/03 09:36:17;;;;;;;7.00;2.10;;;;;;;15.33;62.97;101516.22;10292420;28;20118;-80
2022/10/03 09:41:59;;;;;;;7.85;2.30;;;;;;;15.24;63.80;101529.53;10304571;28;20043;-81
2022/10/03 09:54:33;;;;;;;8.45;2.60;;;;;;;14.94;63.36;101529.34;10266465;28;20039;-77
2022/10/03 10:00:11;;;;;;;5.53;2.67;;;;;;;14.99;63.73;101529.84;10253752;28;20051;-78
2022/10/03 10:05:39;;;;;;;14.38;2.80;;;;;;;14.31;66.63;101521.69;10335709;23;20050;-79
2022/10/03 10:10:54;;;;;;;7.70;2.72;;;;;;;15.18;64.85;101513.81;10316535;28;20051;-80
2022/10/03 10:16:31;;;;;;;7.20;2.63;;;;;;;14.71;65.34;101509.59;10281260;28;20075;-80
2022/10/03 10:21:51;;;;;;;11.45;3.80;;;;;;;15.04;65.09;101512.25;10257270;28;20082;-80
2022/10/03 10:27:20;;;;;;;8.02;3.40;;;;;;;15.34;64.97;101513.44;10290387;28;20122;-80
2022/10/03 10:33:00;;;;;;;9.27;3.10;;;;;;;15.07;65.05;101513.84;10296211;28;20448;-79
2022/10/03 10:38:27;;;;;;;6.85;3.03;;;;;;;15.67;64.11;101508.88;10297010;28;20514;-80
2022/10/03 10:44:23;;;;;;;8.02;2.70;;;;;;;15.74;63.00;101498.34;10298779;28;20476;-80
2022/10/03 10:50:03;;;;;;;7.88;3.10;;;;;;;16.06;63.16;101506.44;10296830;28;20039;-79
2022/10/03 10:55:39;;;;;;;12.20;2.90;;;;;;;17.72;56.40;101483.34;10276693;28;20528;-79
2022/10/03 11:01:21;;;;;;;14.25;3.30;;;;;;;18.93;54.36;101490.75;10277756;28;20039;-79
2022/10/03 11:06:59;;;;;;;9.70;2.85;;;;;;;17.62;55.92;101491.53;10276212;28;20078;-80
2022/10/03 11:12:55;;;;;;;7.80;2.47;;;;;;;17.80;54.74;101481.66;10266425;28;20085;-79
2022/10/03 11:18:46;;;;;;;5.25;2.45;;;;;;;16.19;60.00;101487.25;10288107;28;20097;-79
2022/10/03 11:24:31;;;;;;;10.13;2.30;;;;;;;15.15;61.19;101476.19;10286588;28;20547;-79
2022/10/03 11:35:49;;;;;;;12.23;2.00;;;;;;;15.79;61.68;101469.03;10510563;27;20933;-79
2022/10/03 11:41:03;;;;;;;8.20;1.98;;;;;;;14.57;62.46;101468.31;10361583;28;20511;-79
2022/10/03 11:46:21;;;;;;;8.77;1.95;;;;;;;15.30;62.27;101471.31;10452825;28;20053;-80
2022/10/03 11:51:37;;;;;;;7.22;2.40;;;;;;;14.82;62.93;101469.88;10482455;28;20044;-80
2022/10/03 11:56:44;;;;;;;7.78;3.25;;;;;;;14.80;63.07;101481.78;10484704;28;20497;-78
2022/10/03 12:02:06;;;;;;;9.85;2.55;;;;;;;14.65;65.02;101480.34;10471374;28;20139;-78
2022/10/03 12:12:46;;;;;;;12.55;2.88;;;;;;;14.79;65.00;101463.84;10478448;28;20045;-79
2022/10/03 12:18:01;;;;;;;10.35;2.25;;;;;;;14.78;64.45;101468.41;10479986;28;20044;-80
2022/10/03 12:23:17;;;;;;;11.82;2.22;;;;;;;15.07;63.43;101457.00;10479513;28;20044;-80
2022/10/03 12:28:26;;;;;;;7.45;1.83;;;;;;;15.07;61.15;101461.56;10481118;28;20049;-81
2022/10/03 12:33:51;;;;;;;7.13;1.95;;;;;;;15.84;59.61;101459.50;10479784;28;20061;-81
2022/10/03 12:39:14;;;;;;;9.23;1.65;;;;;;;15.18;61.89;101465.09;10482291;28;20069;-79
2022/10/03 12:44:34;;;;;;;10.02;1.90;;;;;;;14.85;62.11;101459.78;10459188;28;20045;-79
2022/10/03 12:49:51;;;;;;;5.55;1.98;;;;;;;15.45;60.08;101458.38;10448833;28;20037;-80
2022/10/03 12:55:05;;;;;;;6.97;1.45;;;;;;;16.53;56.45;101464.31;10445711;28;20056;-80
2022/10/03 13:00:19;;;;;;;3.17;1.30;;;;;;;15.79;58.01;101456.34;10425727;28;20441;-79
2022/10/03 13:11:15;;;;;;;5.55;1.52;;;;;;;18.69;50.17;101445.88;10170050;23;20128;-79
2022/10/03 13:16:23;;;;;;;4.75;1.48;;;;;;;20.82;45.83;101428.44;10158090;29;20468;-78
2022/10/03 13:21:50;;;;;;;3.72;1.10;;;;;;;20.56;44.90;101440.28;10165218;29;20044;-79
2022/10/03 13:27:02;;;;;;;5.43;1.13;;;;;;;19.54;47.59;101434.66;10191493;29;20415;-79
2022/10/03 13:32:15;;;;;;;5.10;1.45;;;;;;;20.30;47.01;101448.50;10180013;29;20060;-78
2022/10/03 13:37:24;;;;;;;;;;;;;;;19.49;48.04;101437.84;10187670;29;20553;-78
2022/10/03 13:42:37;;;;;;;3.20;1.35;;;;;;;19.06;47.72;101439.50;10192479;29;19923;-78
2022/10/03 13:47:48;;;;;;;4.72;1.17;;;;;;;18.29;48.97;101441.63;10200912;29;20108;-78
2022/10/03 13:52:59;;;;;;;3.80;1.00;;;;;;;18.26;49.61;101449.22;10187078;29;20063;-79
2022/10/03 13:58:23;;;;;;;6.43;1.53;;;;;;;17.39;51.32;101439.38;10184960;29;20376;-79
2022/10/03 14:09:34;;;;;;;5.60;1.27;;;;;;;17.54;50.87;101434.34;10695927;23;20052;-77
2022/10/03 14:21:45;;;;;;;4.70;1.23;;;;;;;17.99;50.46;101426.44;10125717;29;20044;-75
2022/10/03 14:26:54;;;;;;;7.60;1.50;;;;;;;17.14;52.59;101432.63;10123719;29;20040;-77
2022/10/03 14:32:08;;;;;;;5.00;1.13;;;;;;;17.04;53.22;101419.88;10080191;29;20052;-77
2022/10/03 14:37:40;;;;;;;5.63;1.35;;;;;;;16.80;53.22;101422.97;10103342;29;20060;-77
2022/10/03 14:42:56;;;;;;;4.15;1.02;;;;;;;16.34;54.22;101423.56;10091546;29;20033;-77
2022/10/03 14:48:06;;;;;;;6.00;1.45;;;;;;;16.17;55.11;101421.47;10089869;29;20056;-77
2022/10/03 14:53:16;;;;;;;5.47;1.40;;;;;;;15.81;55.87;101426.41;10098696;29;20045;-77
2022/10/03 14:58:22;;;;;;;6.20;1.10;;;;;;;15.78;57.58;101419.41;10196471;23;20048;-78
2022/10/03 15:03:32;;;;;;;5.15;1.10;;;;;;;15.72;56.80;101416.41;10187352;29;20052;-80
2022/10/03 15:08:41;;;;;;;6.60;1.23;;;;;;;15.61;56.43;101418.16;10159220;29;20127;-80
2022/10/03 15:13:47;;;;;;;8.05;1.83;;;;;;;15.77;57.18;101416.81;10159137;29;20056;-77
2022/10/03 15:18:55;;;;;;;3.67;1.08;;;;;;;15.42;57.84;101413.47;10143695;29;20096;-79
2022/10/03 15:24:02;;;;;;;4.25;1.05;;;;;;;15.23;59.18;101405.16;10170683;29;20112;-79
2022/10/03 15:29:07;;;;;;;5.05;1.30;;;;;;;14.93;60.09;101406.75;10177023;29;20079;-79
2022/10/03 15:34:17;;;;;;;7.85;1.20;;;;;;;15.08;60.25;101412.72;10171057;29;20095;-79
2022/10/03 15:39:26;;;;;;;6.88;1.17;;;;;;;14.97;60.46;101391.97;10172697;29;20084;-78
2022/10/03 15:44:37;;;;;;;10.10;1.48;;;;;;;14.79;61.19;101390.81;10044252;29;21268;-79
2022/10/03 15:49:49;;;;;;;2.70;0.82;;;;;;;14.58;60.92;101390.75;10071053;29;20057;-79
2022/10/03 15:54:56;;;;;;;3.83;1.05;;;;;;;14.37;61.64;101379.78;10056822;29;20053;-79
2022/10/03 16:00:23;;;;;;;7.07;1.63;;;;;;;14.53;61.04;101374.88;10063324;29;20060;-78
2022/10/03 16:05:27;;;;;;;8.10;1.83;;;;;;;14.61;60.61;101368.84;10067189;29;20061;-79
2022/10/03 16:10:38;;;;;;;7.43;1.33;;;;;;;14.25;62.43;101361.91;10060166;29;20523;-76
2022/10/03 16:16:09;;;;;;;8.25;1.42;;;;;;;14.28;62.65;101365.19;10058606;29;21306;-80
2022/10/03 16:21:16;;;;;;;6.20;1.25;;;;;;;14.36;62.15;101357.31;10065115;29;20053;-77
2022/10/03 16:26:25;;;;;;;7.18;1.33;;;;;;;14.27;62.47;101343.72;10068392;29;20073;-78
2022/10/03 16:31:36;;;;;;;5.70;1.10;;;;;;;14.08;63.42;101353.31;10069401;29;20057;-78
2022/10/03 16:36:43;;;;;;;4.15;1.00;;;;;;;13.94;63.69;101354.41;10065048;29;20057;-78
2022/10/03 16:41:53;;;;;;;5.53;1.50;;;;;;;13.81;63.79;101353.69;10066048;29;20053;-78
2022/10/03 16:47:01;;;;;;;8.85;1.83;;;;;;;13.72;64.37;101357.13;10065139;29;20045;-78
2022/10/03 16:52:10;;;;;;;5.95;1.63;;;;;;;13.59;64.69;101349.09;10067263;29;20205;-80
2022/10/03 16:57:19;;;;;;;5.25;1.38;;;;;;;13.39;65.33;101355.22;10063650;29;20046;-80
2022/10/03 17:02:27;;;;;;;5.38;1.65;;;;;;;13.26;65.86;101349.88;10082653;29;20735;-76
2022/10/03 17:07:37;;;;;;;11.18;2.20;;;;;;;13.17;66.28;101361.38;10071732;29;20045;-79
2022/10/03 17:12:45;;;;;;;7.22;1.73;;;;;;;13.10;66.52;101362.81;10068260;29;20055;-78
2022/10/03 17:17:54;;;;;;;6.22;2.10;;;;;;;12.97;67.07;101358.38;10066313;29;20053;-79
2022/10/03 17:23:01;;;;;;;8.85;2.50;;;;;;;12.80;67.77;101362.31;10069753;29;20056;-79
2022/10/03 17:28:09;;;;;;;6.55;2.35;;;;;;;12.73;68.05;101358.38;10066922;29;20053;-78
2022/10/03 17:33:21;;;;;;;7.63;2.28;;;;;;;12.74;68.20;101356.53;10065975;29;20124;-80
2022/10/03 17:38:31;;;;;;;7.07;2.10;;;;;;;12.68;68.53;101354.31;10062161;29;20071;-80
2022/10/03 17:44:16;;;;;;;9.30;2.35;;;;;;;12.58;69.03;101354.97;10066828;29;20090;-79
2022/10/03 17:49:25;;;;;;;14.70;2.30;;;;;;;12.50;69.50;101359.22;10066221;29;20510;-79
2022/10/03 17:54:33;;;;;;;8.55;2.60;;;;;;;12.51;69.38;101353.72;10061783;29;20053;-80
2022/10/03 17:59:45;;;;;;;10.60;3.05;;;;;;;12.44;69.67;101359.66;10070220;29;20049;-77
2022/10/03 18:04:57;;;;;;;6.03;2.17;;;;;;;12.37;69.86;101359.28;10062602;29;20048;-80
2022/10/03 18:10:00;;;;;;;7.80;2.30;;;;;;;12.21;70.23;101356.78;10062989;29;20045;-79
2022/10/03 18:15:39;;;;;;;7.82;2.45;;;;;;;12.17;70.38;101369.59;10081639;29;20104;-78
2022/10/03 18:20:48;;;;;;;7.38;2.80;;;;;;;12.19;70.06;101366.81;10069764;29;20048;-79
2022/10/03 18:26:00;;;;;;;5.85;2.60;;;;;;;12.22;70.16;101347.72;10064838;29;21179;-77
2022/10/03 18:31:25;;;;;;;8.63;3.17;;;;;;;12.22;70.12;101360.34;10026817;29;20057;-78
2022/10/03 18:36:32;;;;;;;12.98;3.28;;;;;;;12.13;70.32;101343.88;10063462;29;20053;-77
2022/10/03 18:41:35;;;;;;;11.32;3.30;;;;;;;12.09;70.46;101346.91;10080203;29;20195;-78
2022/10/03 18:46:41;;;;;;;9.70;3.22;;;;;;;11.98;70.84;101354.88;10065840;29;20053;-79
2022/10/03 18:51:49;;;;;;;11.60;3.50;;;;;;;11.90;71.14;101348.25;10068197;29;20052;-79
2022/10/03 18:57:07;;;;;;;10.15;3.08;;;;;;;11.82;71.60;101352.44;10078104;29;20505;-76
2022/10/03 19:02:19;;;;;;;7.47;3.22;;;;;;;11.84;71.45;101347.81;10065107;29;20128;-78
2022/10/03 19:07:23;;;;;;;;;;;;;;;11.78;71.64;101354.47;10063058;29;20370;-79
2022/10/03 19:12:33;;;;;;;12.05;2.97;;;;;;;11.61;72.38;101344.06;10074184;29;20385;-77
2022/10/03 19:17:48;;;;;;;10.50;4.07;;;;;;;11.63;72.43;101340.28;10060908;29;20048;-78
2022/10/03 19:23:00;;;;;;;8.55;3.33;;;;;;;11.66;72.21;101340.06;10054018;29;20072;-79
2022/10/03 19:28:13;;;;;;;4.55;2.58;;;;;;;11.60;72.40;101340.50;10059679;29;20413;-78
2022/10/03 19:33:21;;;;;;;11.48;3.53;;;;;;;11.51;72.86;101338.44;10064890;29;21270;-78
2022/10/03 19:38:27;;;;;;;8.82;3.17;;;;;;;11.41;73.10;101331.97;10062188;29;20059;-79
2022/10/03 19:43:36;;;;;;;8.23;3.38;;;;;;;11.53;72.32;101351.81;10060623;29;21309;-79
2022/10/03 19:48:48;;;;;;;16.50;4.47;;;;;;;11.50;72.68;101347.50;10063011;29;20057;-78
2022/10/03 19:53:52;;;;;;;12.50;3.83;;;;;;;11.49;72.54;101340.38;10067292;29;20063;-78
2022/10/03 19:59:04;;;;;;;12.48;4.07;;;;;;;11.39;73.24;101350.94;10071879;29;21175;-76
2022/10/03 20:04:09;;;;;;;7.93;3.28;;;;;;;11.37;73.23;101342.09;10072195;29;20136;-77
2022/10/03 20:09:22;;;;;;;13.15;4.22;;;;;;;11.11;74.39;101332.22;10100538;29;20061;-78
2022/10/03 20:14:30;;;;;;;11.02;3.78;;;;;;;11.33;73.29;101334.38;10114673;29;20109;-80
2022/10/03 20:19:53;;;;;;;11.48;3.35;;;;;;;11.33;73.09;101334.38;10096718;29;20061;-79
2022/10/03 20:24:56;;;;;;;12.52;3.58;;;;;;;11.21;73.76;101322.59;10108287;29;20052;-79
2022/10/03 20:30:07;;;;;;;6.85;3.40;;;;;;;11.11;74.34;101321.47;10109380;29;20053;-79
2022/10/03 20:35:14;;;;;;;12.60;4.32;;;;;;;11.15;74.07;101333.78;10109101;29;20066;-79
2022/10/03 20:40:34;;;;;;;10.13;4.80;;;;;;;11.19;74.04;101332.59;10106992;29;20041;-79
2022/10/03 20:45:39;;;;;;;7.78;4.00;;;;;;;11.07;74.38;101328.91;10107555;29;20041;-79
2022/10/03 20:50:47;;;;;;;8.02;3.47;;;;;;;10.94;74.95;101328.88;10104887;29;20053;-80
2022/10/03 20:55:52;;;;;;;11.55;4.13;;;;;;;10.89;75.31;101316.69;10106459;29;20071;-79
2022/10/03 21:01:01;;;;;;;13.85;4.82;;;;;;;11.04;74.55;101321.03;10103627;29;20053;-79
2022/10/03 21:06:17;;;;;;;12.30;3.78;;;;;;;10.98;74.55;101311.56;10104741;29;20045;-79
2022/10/03 21:11:23;;;;;;;11.43;4.20;;;;;;;10.92;74.53;101312.00;10083076;29;20052;-78
2022/10/03 21:16:30;;;;;;;17.98;4.38;;;;;;;10.77;74.73;101321.94;10108115;29;20045;-78
2022/10/03 21:21:36;;;;;;;9.82;4.22;;;;;;;10.67;75.08;101328.91;10109600;29;20100;-78
2022/10/03 21:26:47;;;;;;;11.32;4.03;;;;;;;10.73;75.11;101330.31;10067680;29;20058;-78
2022/10/03 21:31:57;;;;;;;13.23;4.40;;;;;;;10.71;75.06;101327.72;10120652;29;20045;-77
2022/10/03 21:37:12;;;;;;;16.33;5.40;;;;;;;10.48;74.95;101317.66;10118679;29;20089;-79
2022/10/03 21:42:23;;;;;;;11.35;4.80;;;;;;;10.33;75.22;101314.13;10112620;29;20571;-79
2022/10/03 21:47:36;;;;;;;14.60;5.07;;;;;;;10.34;75.37;101311.38;10109518;29;20049;-78
2022/10/03 21:52:59;;;;;;;10.18;4.75;;;;;;;10.31;75.14;101311.56;10127112;29;20041;-77
2022/10/03 21:58:15;;;;;;;9.60;4.30;;;;;;;10.26;75.22;101315.53;10090392;29;20040;-77
2022/10/03 22:03:23;;;;;;;10.43;4.00;;;;;;;10.15;75.04;101310.84;10102737;29;20097;-77
2022/10/03 22:08:30;;;;;;;11.70;4.28;;;;;;;10.08;75.45;101304.13;10102998;29;20080;-78
2022/10/03 22:13:37;;;;;;;9.82;3.95;;;;;;;10.07;75.33;101292.53;10102239;29;20084;-78
2022/10/03 22:19:03;;;;;;;11.93;4.40;;;;;;;10.07;75.24;101289.00;10102964;29;20057;-78
2022/10/03 22:24:16;;;;;;;13.95;5.03;;;;;;;9.91;75.40;101281.91;10109835;29;20041;-78
2022/10/03 22:29:28;;;;;;;13.27;6.15;;;;;;;9.79;75.76;101284.47;10081597;29;20124;-78
2022/10/03 22:34:43;;;;;;;13.73;6.70;;;;;;;9.67;76.54;101278.06;10101977;29;20128;-77
2022/10/03 22:39:49;;;;;;;11.13;6.47;;;;;;;9.63;76.85;101287.28;10094309;29;20074;-78
2022/10/03 22:44:53;;;;;;;9.45;6.05;;;;;;;9.64;76.57;101289.00;10101228;29;20060;-78
2022/10/03 22:50:00;;;;;;;14.23;6.57;;;;;;;9.62;76.38;101283.72;10105657;29;20529;-78
2022/10/03 22:55:08;;;;;;;13.77;7.70;;;;;;;9.65;76.38;101285.34;10104516;29;20495;-78
2022/10/03 23:00:14;;;;;;;9.68;7.32;;;;;;;9.65;76.13;101286.25;10098845;29;20049;-78
2022/10/03 23:05:29;;;;;;;16.95;8.38;;;;;;;9.61;76.06;101268.59;10097487;29;20116;-78
2022/10/03 23:10:41;;;;;;;13.98;7.65;;;;;;;9.56;75.81;101288.63;10098487;29;20089;-78
2022/10/03 23:15:49;;;;;;;20.25;8.57;;;;;;;9.51;75.65;101283.53;10098635;29;20076;-78
2022/10/03 23:21:04;;;;;;;16.67;8.38;;;;;;;9.40;75.71;101275.31;10084669;29;20049;-78
2022/10/03 23:26:34;;;;;;;16.63;8.27;;;;;;;9.26;76.36;101250.19;10075131;29;20111;-78
2022/10/03 23:31:56;;;;;;;19.23;8.90;;;;;;;9.25;76.77;101269.94;10098909;29;20075;-78
2022/10/03 23:37:01;;;;;;;12.37;8.17;;;;;;;9.26;76.39;101268.97;10109187;29;20048;-78
2022/10/03 23:42:09;;;;;;;18.58;8.13;;;;;;;9.19;76.42;101266.78;10081406;29;20049;-78
2022/10/03 23:47:14;;;;;;;21.77;9.02;;;;;;;9.31;76.60;101263.34;10098735;29;20051;-78
2022/10/03 23:52:23;;;;;;;23.10;8.82;;;;;;;9.26;76.61;101265.44;10106864;29;20049;-78
2022/10/03 23:57:39;;;;;;;14.15;8.73;;;;;;;9.30;76.76;101258.94;10107101;29;20049;-79
